createdAt,value
2023-04-25T00:01:24.196Z,13.10
2023-04-25T00:03:52.123Z,13.10
2023-04-25T00:06:19.783Z,13.10
2023-04-25T00:08:47.587Z,13.10
2023-04-25T00:11:14.862Z,13.20
2023-04-25T00:13:43.005Z,13.10
2023-04-25T00:16:10.453Z,13.10
2023-04-25T00:18:37.939Z,13.10
2023-04-25T00:21:07.461Z,13.10
2023-04-25T00:23:37.582Z,13.10
2023-04-25T00:26:04.912Z,13.00
2023-04-25T00:28:32.309Z,13.00
2023-04-25T00:30:59.772Z,13.00
2023-04-25T00:33:27.437Z,13.00
2023-04-25T00:35:55.054Z,13.00
2023-04-25T00:38:22.698Z,13.00
2023-04-25T00:40:50.892Z,12.90
2023-04-25T00:43:18.317Z,12.90
2023-04-25T00:45:49.475Z,12.80
2023-04-25T00:48:18.346Z,12.80
2023-04-25T00:50:53.030Z,12.80
2023-04-25T00:53:21.665Z,12.80
2023-04-25T00:55:52.018Z,12.70
2023-04-25T00:58:20.936Z,12.70
2023-04-25T01:00:49.855Z,12.70
2023-04-25T01:03:20.986Z,12.70
2023-04-25T01:05:49.406Z,12.70
2023-04-25T01:08:17.129Z,12.70
2023-04-25T01:10:44.699Z,12.80
2023-04-25T01:13:12.331Z,12.80
2023-04-25T01:15:39.865Z,12.80
2023-04-25T01:18:07.781Z,12.80
2023-04-25T01:20:35.658Z,12.80
2023-04-25T01:23:04.268Z,12.80
2023-04-25T01:25:32.792Z,12.80
2023-04-25T01:28:00.665Z,12.80
2023-04-25T01:30:30.260Z,12.80
2023-04-25T01:32:59.177Z,12.80
2023-04-25T01:35:26.884Z,12.80
2023-04-25T01:37:55.335Z,12.80
2023-04-25T01:40:24.305Z,12.80
2023-04-25T01:42:52.575Z,12.60
2023-04-25T01:45:21.485Z,12.50
2023-04-25T01:47:51.083Z,12.50
2023-04-25T01:50:19.985Z,12.50
2023-04-25T01:52:47.396Z,12.50
2023-04-25T01:55:15.325Z,12.50
2023-04-25T01:57:52.649Z,12.60
2023-04-25T02:00:25.140Z,12.60
2023-04-25T02:02:54.857Z,12.70
2023-04-25T02:05:28.007Z,12.70
2023-04-25T02:07:56.598Z,12.70
2023-04-25T02:10:26.518Z,12.50
2023-04-25T02:13:06.456Z,12.50
2023-04-25T02:15:42.448Z,12.50
2023-04-25T02:18:17.369Z,12.50
2023-04-25T02:20:45.516Z,12.50
2023-04-25T02:23:12.877Z,12.50
2023-04-25T02:25:40.412Z,12.50
2023-04-25T02:28:07.745Z,12.50
2023-04-25T02:30:37.167Z,12.40
2023-04-25T02:33:06.370Z,12.40
2023-04-25T02:35:33.872Z,12.40
2023-04-25T02:38:01.177Z,12.50
2023-04-25T02:40:28.736Z,12.40
2023-04-25T02:42:56.068Z,12.40
2023-04-25T02:45:23.507Z,12.30
2023-04-25T02:47:51.049Z,12.30
2023-04-25T02:50:20.657Z,12.40
2023-04-25T02:52:47.956Z,12.40
2023-04-25T02:55:20.711Z,12.50
2023-04-25T02:57:48.917Z,12.50
2023-04-25T03:00:25.897Z,12.50
2023-04-25T03:02:53.502Z,12.50
2023-04-25T03:05:21.055Z,12.50
2023-04-25T03:07:48.576Z,12.40
2023-04-25T03:10:17.497Z,12.40
2023-04-25T03:12:45.027Z,12.40
2023-04-25T03:15:12.526Z,12.40
2023-04-25T03:17:39.962Z,12.40
2023-04-25T03:20:09.527Z,12.40
2023-04-25T03:22:37.778Z,12.40
2023-04-25T03:25:05.981Z,12.40
2023-04-25T03:27:33.461Z,12.40
2023-04-25T03:30:00.780Z,12.40
2023-04-25T03:32:28.162Z,12.40
2023-04-25T03:34:55.412Z,12.40
2023-04-25T03:37:26.297Z,12.30
2023-04-25T03:39:54.501Z,12.30
2023-04-25T03:42:24.213Z,12.30
2023-04-25T03:44:52.914Z,12.30
2023-04-25T03:47:20.988Z,12.30
2023-04-25T03:49:52.814Z,12.30
2023-04-25T03:52:23.251Z,12.30
2023-04-25T03:54:50.722Z,12.30
2023-04-25T03:57:20.481Z,12.30
2023-04-25T03:59:48.017Z,12.30
2023-04-25T04:02:16.654Z,12.30
2023-04-25T04:04:45.546Z,12.30
2023-04-25T04:07:13.463Z,12.30
2023-04-25T04:09:43.099Z,12.30
2023-04-25T04:12:16.562Z,12.20
2023-04-25T04:14:44.164Z,12.20
2023-04-25T04:17:11.582Z,12.20
2023-04-25T04:19:38.913Z,12.20
2023-04-25T04:22:11.968Z,12.20
2023-04-25T04:24:41.008Z,12.20
2023-04-25T04:27:09.293Z,12.10
2023-04-25T04:29:39.569Z,12.10
2023-04-25T04:32:12.416Z,12.10
2023-04-25T04:34:41.040Z,12.00
2023-04-25T04:37:09.114Z,12.00
2023-04-25T04:39:37.517Z,11.90
2023-04-25T04:42:12.512Z,11.80
2023-04-25T04:44:51.295Z,11.90
2023-04-25T04:47:32.315Z,11.90
2023-04-25T04:50:11.945Z,11.90
2023-04-25T04:52:55.508Z,11.90
2023-04-25T04:55:36.947Z,12.00
2023-04-25T04:58:09.461Z,11.90
2023-04-25T05:00:47.774Z,11.80
2023-04-25T05:03:17.217Z,11.80
2023-04-25T05:05:46.984Z,11.80
2023-04-25T05:08:15.972Z,11.80
2023-04-25T05:10:53.817Z,11.80
2023-04-25T05:13:36.349Z,11.80
2023-04-25T05:16:23.530Z,11.90
2023-04-25T05:18:52.529Z,11.90
2023-04-25T05:21:29.316Z,11.90
2023-04-25T05:24:16.900Z,11.90
2023-04-25T05:26:45.704Z,11.90
2023-04-25T05:29:14.496Z,11.90
2023-04-25T05:31:55.324Z,11.90
2023-04-25T05:34:22.550Z,11.80
2023-04-25T05:36:56.664Z,11.70
2023-04-25T05:39:24.603Z,11.50
2023-04-25T05:42:07.711Z,11.40
2023-04-25T05:44:54.791Z,11.40
2023-04-25T05:47:28.525Z,11.40
2023-04-25T05:50:04.566Z,11.40
2023-04-25T05:52:44.101Z,11.40
2023-04-25T05:55:24.485Z,11.40
2023-04-25T05:57:52.041Z,11.40
2023-04-25T06:00:20.246Z,11.50
2023-04-25T06:02:50.188Z,11.60
2023-04-25T06:05:18.700Z,11.70
2023-04-25T06:07:48.006Z,11.80
2023-04-25T06:10:16.083Z,11.90
2023-04-25T06:12:44.210Z,11.90
2023-04-25T06:15:24.318Z,11.90
2023-04-25T06:17:55.321Z,11.90
2023-04-25T06:20:25.271Z,11.90
2023-04-25T06:22:54.368Z,12.00
2023-04-25T06:25:28.034Z,12.10
2023-04-25T06:27:56.179Z,12.20
2023-04-25T06:30:26.631Z,12.30
2023-04-25T06:32:59.002Z,12.50
2023-04-25T06:35:29.341Z,12.70
2023-04-25T06:37:56.589Z,12.80
2023-04-25T06:40:25.081Z,12.80
2023-04-25T06:42:52.433Z,12.90
2023-04-25T06:45:33.873Z,13.00
2023-04-25T06:48:01.324Z,13.10
2023-04-25T06:50:29.288Z,13.10
2023-04-25T06:52:56.727Z,13.10
2023-04-25T06:55:24.424Z,13.20
2023-04-25T06:58:04.785Z,13.30
2023-04-25T07:00:34.866Z,13.20
2023-04-25T07:03:02.207Z,13.30
2023-04-25T07:05:29.742Z,13.30
2023-04-25T07:07:57.251Z,13.30
2023-04-25T07:10:24.832Z,13.30
2023-04-25T07:12:52.065Z,13.40
2023-04-25T07:15:19.470Z,13.40
2023-04-25T07:17:49.177Z,13.50
2023-04-25T07:20:17.221Z,13.50
2023-04-25T07:22:45.099Z,13.60
2023-04-25T07:25:12.687Z,13.60
2023-04-25T07:27:40.430Z,13.70
2023-04-25T07:30:14.268Z,13.80
2023-04-25T07:32:41.676Z,13.80
2023-04-25T07:35:09.319Z,13.80
2023-04-25T07:37:37.270Z,13.80
2023-04-25T07:40:12.163Z,13.80
2023-04-25T07:42:45.005Z,13.70
2023-04-25T07:45:16.556Z,13.70
2023-04-25T07:47:44.633Z,13.70
2023-04-25T07:50:12.385Z,13.70
2023-04-25T07:52:39.674Z,13.80
2023-04-25T07:55:16.725Z,13.80
2023-04-25T07:57:57.600Z,13.90
2023-04-25T08:00:24.977Z,13.90
2023-04-25T08:03:04.016Z,14.10
2023-04-25T08:05:31.759Z,14.20
2023-04-25T08:08:04.365Z,14.40
2023-04-25T08:10:31.591Z,14.60
2023-04-25T08:13:01.074Z,14.70
2023-04-25T08:15:28.462Z,14.80
2023-04-25T08:17:55.829Z,15.00
2023-04-25T08:20:23.416Z,15.10
2023-04-25T08:22:53.198Z,15.20
2023-04-25T08:25:29.847Z,15.30
2023-04-25T08:27:58.197Z,15.30
2023-04-25T08:30:26.206Z,15.30
2023-04-25T08:32:53.798Z,15.40
2023-04-25T08:35:32.188Z,15.50
2023-04-25T08:37:59.630Z,15.50
2023-04-25T08:40:31.227Z,15.60
2023-04-25T08:43:06.045Z,15.50
2023-04-25T08:45:35.974Z,15.50
2023-04-25T08:48:04.508Z,15.50
2023-04-25T08:50:32.083Z,15.70
2023-04-25T08:53:05.133Z,15.70
2023-04-25T08:55:32.993Z,15.80
2023-04-25T08:58:01.853Z,15.90
2023-04-25T09:00:30.640Z,15.80
2023-04-25T09:02:59.776Z,15.90
2023-04-25T09:05:31.468Z,15.90
2023-04-25T09:07:59.278Z,16.10
2023-04-25T09:10:26.658Z,16.30
2023-04-25T09:12:59.557Z,16.40
2023-04-25T09:15:27.204Z,16.60
2023-04-25T09:18:07.410Z,16.80
2023-04-25T09:20:56.534Z,16.80
2023-04-25T09:23:28.647Z,16.90
2023-04-25T09:25:55.959Z,16.90
2023-04-25T09:28:28.599Z,16.90
2023-04-25T09:30:59.643Z,16.90
2023-04-25T09:33:36.850Z,16.90
2023-04-25T09:36:08.216Z,17.00
2023-04-25T09:38:40.136Z,16.90
2023-04-25T09:41:12.988Z,16.60
2023-04-25T09:43:48.177Z,16.40
2023-04-25T09:46:16.631Z,16.30
2023-04-25T09:48:51.387Z,16.30
2023-04-25T09:51:29.132Z,16.30
2023-04-25T09:53:59.351Z,16.30
2023-04-25T09:56:38.827Z,16.30
2023-04-25T09:59:11.035Z,16.40
2023-04-25T10:01:42.726Z,16.40
2023-04-25T10:04:22.250Z,16.50
2023-04-25T10:06:53.592Z,16.60
2023-04-25T10:09:22.425Z,16.70
2023-04-25T10:11:49.779Z,16.70
2023-04-25T10:14:18.249Z,16.80
2023-04-25T10:16:46.541Z,16.90
2023-04-25T10:19:14.850Z,16.90
2023-04-25T10:21:53.073Z,16.70
2023-04-25T10:24:21.639Z,16.70
2023-04-25T10:26:50.248Z,16.80
2023-04-25T10:29:23.221Z,16.80
2023-04-25T10:31:50.564Z,16.80
2023-04-25T10:34:19.420Z,16.80
2023-04-25T10:36:51.132Z,16.70
2023-04-25T10:39:24.502Z,16.80
2023-04-25T10:41:56.249Z,16.70
2023-04-25T10:44:23.568Z,16.70
2023-04-25T10:46:50.759Z,16.70
2023-04-25T10:49:21.775Z,16.70
2023-04-25T10:51:55.341Z,16.80
2023-04-25T10:54:26.226Z,16.90
2023-04-25T10:56:54.360Z,16.90
2023-04-25T10:59:26.054Z,16.90
2023-04-25T11:01:56.251Z,16.90
2023-04-25T11:04:27.006Z,17.00
2023-04-25T11:07:11.947Z,17.10
2023-04-25T11:09:41.892Z,17.20
2023-04-25T11:12:12.886Z,17.20
2023-04-25T11:17:08.575Z,17.10
2023-04-25T11:19:36.185Z,17.00
2023-04-25T11:22:04.754Z,17.00
2023-04-25T11:24:33.389Z,17.00
2023-04-25T11:27:01.090Z,17.00
2023-04-25T11:29:29.116Z,17.00
2023-04-25T11:31:59.323Z,16.90
2023-04-25T11:34:28.084Z,16.90
2023-04-25T11:36:55.427Z,16.80
2023-04-25T11:39:23.008Z,16.80
2023-04-25T11:41:50.275Z,16.80
2023-04-25T11:44:18.616Z,16.80
2023-04-25T11:46:46.934Z,16.80
2023-04-25T11:49:15.641Z,16.90
2023-04-25T11:51:44.280Z,17.00
2023-04-25T11:54:12.880Z,17.20
2023-04-25T11:56:43.839Z,17.30
2023-04-25T11:59:11.984Z,17.40
2023-04-25T12:01:41.751Z,17.30
2023-04-25T12:04:12.292Z,17.20
2023-04-25T12:06:41.691Z,17.10
2023-04-25T12:09:11.602Z,17.00
2023-04-25T12:11:42.000Z,17.00
2023-04-25T12:14:09.695Z,17.00
2023-04-25T12:16:39.835Z,17.00
2023-04-25T12:19:07.154Z,17.00
2023-04-25T12:21:38.749Z,17.10
2023-04-25T12:24:12.336Z,17.10
2023-04-25T12:26:42.522Z,17.10
2023-04-25T12:29:18.544Z,17.20
2023-04-25T12:31:46.601Z,17.30
2023-04-25T12:34:14.193Z,17.40
2023-04-25T12:36:41.645Z,17.60
2023-04-25T12:39:09.124Z,17.60
2023-04-25T12:41:36.363Z,17.60
2023-04-25T12:44:04.443Z,17.50
2023-04-25T12:46:31.733Z,17.40
2023-04-25T12:49:08.293Z,17.30
2023-04-25T12:51:44.820Z,17.30
2023-04-25T12:54:12.181Z,17.30
2023-04-25T12:56:39.643Z,17.20
2023-04-25T12:59:06.915Z,17.10
2023-04-25T13:01:35.721Z,17.00
2023-04-25T13:04:04.349Z,17.00
2023-04-25T13:06:32.064Z,17.00
2023-04-25T13:08:59.246Z,16.90
2023-04-25T13:11:26.688Z,17.00
2023-04-25T13:13:54.216Z,17.00
2023-04-25T13:16:22.498Z,17.00
2023-04-25T13:18:49.924Z,17.00
2023-04-25T13:21:17.320Z,17.10
2023-04-25T13:23:45.982Z,17.10
2023-04-25T13:26:13.210Z,17.10
2023-04-25T13:28:42.936Z,17.10
2023-04-25T13:31:12.251Z,17.10
2023-04-25T13:33:39.476Z,17.20
2023-04-25T13:36:07.057Z,17.30
2023-04-25T13:38:34.257Z,17.40
2023-04-25T13:41:02.028Z,17.40
2023-04-25T13:43:29.279Z,17.40
2023-04-25T13:45:56.634Z,17.40
2023-04-25T13:48:25.292Z,17.30
2023-04-25T13:50:52.702Z,17.30
2023-04-25T13:53:19.850Z,17.30
2023-04-25T13:55:47.280Z,17.20
2023-04-25T13:58:14.560Z,17.10
2023-04-25T14:00:44.271Z,17.10
2023-04-25T14:03:11.611Z,17.10
2023-04-25T14:05:39.406Z,17.10
2023-04-25T14:08:09.107Z,17.20
2023-04-25T14:10:37.083Z,17.30
2023-04-25T14:13:04.849Z,17.40
2023-04-25T14:15:34.295Z,17.40
2023-04-25T14:18:02.102Z,17.30
2023-04-25T14:20:30.497Z,17.20
2023-04-25T14:22:59.285Z,17.10
2023-04-25T14:25:27.156Z,17.20
2023-04-25T14:27:54.528Z,17.20
2023-04-25T14:30:22.709Z,17.10
2023-04-25T14:32:51.130Z,17.20
2023-04-25T14:35:18.671Z,17.20
2023-04-25T14:37:46.054Z,17.10
2023-04-25T14:40:16.342Z,17.10
2023-04-25T14:42:43.887Z,17.10
2023-04-25T14:45:11.393Z,17.00
2023-04-25T14:47:39.047Z,17.00
2023-04-25T14:50:08.316Z,17.00
2023-04-25T14:52:36.270Z,17.00
2023-04-25T14:55:06.405Z,16.90
2023-04-25T14:57:34.637Z,16.90
2023-04-25T15:00:02.202Z,16.90
2023-04-25T15:02:29.717Z,16.90
2023-04-25T15:04:57.225Z,16.90
2023-04-25T15:07:24.949Z,16.90
2023-04-25T15:09:54.054Z,17.00
2023-04-25T15:12:21.867Z,17.00
2023-04-25T15:14:49.054Z,17.10
2023-04-25T15:17:16.608Z,17.10
2023-04-25T15:19:43.802Z,17.10
2023-04-25T15:22:11.614Z,17.10
2023-04-25T15:24:38.766Z,17.00
2023-04-25T15:27:06.183Z,17.00
2023-04-25T15:29:33.345Z,17.00
2023-04-25T15:32:00.689Z,16.90
2023-04-25T15:34:28.095Z,16.90
2023-04-25T15:36:55.761Z,16.90
2023-04-25T15:39:23.164Z,16.90
2023-04-25T15:41:50.487Z,16.90
2023-04-25T15:44:17.564Z,16.80
2023-04-25T15:46:45.850Z,16.80
2023-04-25T15:49:13.322Z,16.80
2023-04-25T15:51:40.661Z,16.80
2023-04-25T15:54:08.231Z,16.80
2023-04-25T15:56:35.529Z,16.70
2023-04-25T15:59:02.668Z,16.70
2023-04-25T16:01:31.330Z,16.70
2023-04-25T16:03:59.640Z,16.70
2023-04-25T16:06:27.720Z,16.70
2023-04-25T16:08:55.242Z,16.70
2023-04-25T16:11:22.885Z,16.70
2023-04-25T16:13:50.574Z,16.70
2023-04-25T16:16:18.117Z,16.60
2023-04-25T16:18:45.375Z,16.60
2023-04-25T16:21:17.047Z,16.70
2023-04-25T16:23:44.910Z,16.70
2023-04-25T16:26:12.134Z,16.60
2023-04-25T16:28:39.417Z,16.70
2023-04-25T16:31:06.834Z,16.60
2023-04-25T16:33:37.807Z,16.60
2023-04-25T16:36:05.427Z,16.60
2023-04-25T16:38:32.696Z,16.50
2023-04-25T16:41:00.065Z,16.40
2023-04-25T16:43:27.228Z,16.40
2023-04-25T16:45:54.451Z,16.40
2023-04-25T16:48:24.538Z,16.30
2023-04-25T16:50:52.845Z,16.20
2023-04-25T16:53:22.142Z,16.30
2023-04-25T16:55:49.610Z,16.30
2023-04-25T16:58:16.918Z,16.30
2023-04-25T17:00:44.550Z,16.30
2023-04-25T17:03:12.067Z,16.20
2023-04-25T17:05:39.607Z,16.20
2023-04-25T17:08:06.851Z,16.20
2023-04-25T17:10:34.260Z,16.20
2023-04-25T17:13:01.684Z,16.20
2023-04-25T17:15:28.954Z,16.20
2023-04-25T17:17:56.537Z,16.20
2023-04-25T17:20:23.806Z,16.20
2023-04-25T17:22:50.957Z,16.20
2023-04-25T17:25:18.262Z,16.10
2023-04-25T17:27:45.523Z,16.10
2023-04-25T17:30:13.122Z,16.10
2023-04-25T17:32:40.404Z,16.00
2023-04-25T17:35:07.977Z,16.10
2023-04-25T17:37:35.333Z,16.10
2023-04-25T17:40:04.953Z,16.10
2023-04-25T17:42:32.155Z,16.10
2023-04-25T17:44:59.395Z,16.10
2023-04-25T17:47:26.690Z,16.10
2023-04-25T17:49:54.856Z,16.10
2023-04-25T17:52:22.305Z,16.10
2023-04-25T17:54:49.811Z,16.10
2023-04-25T17:57:18.247Z,16.10
2023-04-25T17:59:45.339Z,16.10
2023-04-25T18:02:12.668Z,16.00
2023-04-25T18:04:40.450Z,16.00
2023-04-25T18:07:07.917Z,15.90
2023-04-25T18:09:35.542Z,15.90
2023-04-25T18:12:04.071Z,15.90
2023-04-25T18:14:33.398Z,15.90
2023-04-25T18:17:00.679Z,15.90
2023-04-25T18:19:27.926Z,15.90
2023-04-25T18:21:56.154Z,15.90
2023-04-25T18:24:27.001Z,16.00
2023-04-25T18:26:56.052Z,15.90
2023-04-25T18:29:33.191Z,15.80
2023-04-25T18:32:02.230Z,15.70
2023-04-25T18:34:29.511Z,15.60
2023-04-25T18:36:57.217Z,15.50
2023-04-25T18:39:25.420Z,15.50
2023-04-25T18:41:58.113Z,15.40
2023-04-25T18:44:28.342Z,15.50
2023-04-25T18:46:55.580Z,15.50
2023-04-25T18:49:23.425Z,15.50
2023-04-25T18:51:51.397Z,15.50
2023-04-25T18:54:18.574Z,15.50
2023-04-25T18:56:46.826Z,15.50
2023-04-25T18:59:15.659Z,15.50
2023-04-25T19:01:43.520Z,15.50
2023-04-25T19:04:11.062Z,15.40
2023-04-25T19:06:38.432Z,15.40
2023-04-25T19:09:05.751Z,15.40
2023-04-25T19:11:32.857Z,15.40
2023-04-25T19:14:01.293Z,15.40
2023-04-25T19:16:28.612Z,15.40
2023-04-25T19:18:56.988Z,15.40
2023-04-25T19:21:24.314Z,15.40
2023-04-25T19:23:54.337Z,15.40
2023-04-25T19:26:22.520Z,15.40
2023-04-25T19:29:11.596Z,15.30
2023-04-25T19:31:40.233Z,15.40
2023-04-25T19:34:08.987Z,15.30
2023-04-25T19:36:38.864Z,15.30
2023-04-25T19:39:07.709Z,15.30
2023-04-25T19:41:38.211Z,15.30
2023-04-25T19:44:08.621Z,15.30
2023-04-25T19:46:37.029Z,15.20
2023-04-25T19:49:07.915Z,15.20
2023-04-25T19:51:36.679Z,15.20
2023-04-25T19:54:04.375Z,15.20
2023-04-25T19:56:31.686Z,15.10
2023-04-25T19:58:58.970Z,15.10
2023-04-25T20:01:26.401Z,15.10
2023-04-25T20:03:53.948Z,15.20
2023-04-25T20:06:21.922Z,15.10
2023-04-25T20:08:53.138Z,15.10
2023-04-25T20:11:21.807Z,15.10
2023-04-25T20:13:50.035Z,15.10
2023-04-25T20:16:20.185Z,15.10
2023-04-25T20:18:48.737Z,15.10
2023-04-25T20:21:17.285Z,15.10
2023-04-25T20:23:45.426Z,15.10
2023-04-25T20:26:12.920Z,15.10
2023-04-25T20:28:40.228Z,15.10
2023-04-25T20:31:08.064Z,15.00
2023-04-25T20:33:38.505Z,15.00
2023-04-25T20:36:06.103Z,15.00
2023-04-25T20:38:33.295Z,14.90
2023-04-25T20:41:00.676Z,14.80
2023-04-25T20:43:28.171Z,14.80
2023-04-25T20:45:55.566Z,14.80
2023-04-25T20:48:22.755Z,14.80
2023-04-25T20:50:50.082Z,14.80
2023-04-25T20:53:17.185Z,14.80
2023-04-25T20:55:44.427Z,14.80
2023-04-25T20:58:11.880Z,14.80
2023-04-25T21:00:39.149Z,14.80
2023-04-25T21:03:07.358Z,14.80
2023-04-25T21:05:34.839Z,14.80
2023-04-25T21:08:02.818Z,14.80
2023-04-25T21:10:30.198Z,14.80
2023-04-25T21:12:58.115Z,14.80
2023-04-25T21:15:25.930Z,14.80
2023-04-25T21:17:53.179Z,14.80
2023-04-25T21:20:22.048Z,14.80
2023-04-25T21:22:53.733Z,14.80
2023-04-25T21:25:29.485Z,14.70
2023-04-25T21:27:57.504Z,14.70
2023-04-25T21:30:25.931Z,14.70
2023-04-25T21:32:53.460Z,14.70
2023-04-25T21:35:22.514Z,14.70
2023-04-25T21:37:51.112Z,14.60
2023-04-25T21:40:18.678Z,14.60
2023-04-25T21:42:50.125Z,14.50
2023-04-25T21:45:18.484Z,14.50
2023-04-25T21:47:47.198Z,14.50
2023-04-25T21:50:15.508Z,14.50
2023-04-25T21:52:42.798Z,14.40
2023-04-25T21:55:11.709Z,14.40
2023-04-25T21:57:39.013Z,14.30
2023-04-25T22:00:20.423Z,14.20
2023-04-25T22:02:48.436Z,14.20
2023-04-25T22:05:16.390Z,14.20
2023-04-25T22:07:43.750Z,14.20
2023-04-25T22:10:11.254Z,14.20
2023-04-25T22:12:38.473Z,14.20
2023-04-25T22:15:06.180Z,14.30
2023-04-25T22:17:34.075Z,14.30
2023-04-25T22:20:02.419Z,14.30
2023-04-25T22:22:29.870Z,14.20
2023-04-25T22:24:57.032Z,14.20
2023-04-25T22:27:24.314Z,14.10
2023-04-25T22:29:51.660Z,14.10
2023-04-25T22:32:19.106Z,14.10
2023-04-25T22:34:46.770Z,14.10
2023-04-25T22:37:14.198Z,14.10
2023-04-25T22:39:41.281Z,14.20
2023-04-25T22:42:08.458Z,14.20
2023-04-25T22:44:35.642Z,14.20
2023-04-25T22:47:02.925Z,14.20
2023-04-25T22:49:30.337Z,14.10
2023-04-25T22:51:57.736Z,14.20
2023-04-25T22:54:24.977Z,14.10
2023-04-25T22:56:52.414Z,14.10
2023-04-25T22:59:20.869Z,13.90
2023-04-25T23:01:50.172Z,13.90
2023-04-25T23:04:19.224Z,13.90
2023-04-25T23:06:46.879Z,13.90
2023-04-25T23:09:14.202Z,13.90
2023-04-25T23:11:42.850Z,13.80
2023-04-25T23:14:10.402Z,13.80
2023-04-25T23:16:37.647Z,13.80
2023-04-25T23:19:04.832Z,13.80
2023-04-25T23:21:32.203Z,13.80
2023-04-25T23:23:59.762Z,13.80
2023-04-25T23:26:27.112Z,13.80
2023-04-25T23:28:55.196Z,13.80
2023-04-25T23:31:22.684Z,13.90
2023-04-25T23:33:49.943Z,13.90
2023-04-25T23:36:20.403Z,13.80
2023-04-25T23:38:48.253Z,13.80
2023-04-25T23:41:15.459Z,13.80
2023-04-25T23:43:42.629Z,13.80
2023-04-25T23:46:09.850Z,13.80
2023-04-25T23:48:37.056Z,13.70
2023-04-25T23:51:04.362Z,13.60
2023-04-25T23:53:31.613Z,13.60
2023-04-25T23:55:58.949Z,13.60
2023-04-25T23:58:26.152Z,13.70
